Airfield :
LOGIN :

Register | Disclaimer

   EN    FR    IT 

 










Legend :    VFR   Marginal VFR   IFR   Intensive IFR   Very Intensive IFR
Visi :
Ceiling :
>= 8 km
>= 3000ft
5 to 8 km
1000 to 3000 ft
1500m to 5 km
500 to 1000 ft
800 to 1500m
200 to 500 ft
< 800m
< 200 ft
Symbols :   Thunderstorms  Fog  Heavy snow  Heavy precipitations  Wind > 20 kt
SIGMETs :     Misc.  Thunderstorms  Icing  Turbulence  Mountain Waves  Volcanic Ashes






- Airport Elevation : 336 ft
- IATA code : GCI


EGJB - Guernsey

CURRENT METAR :
  • 101220Z 19022KT 9999 FEW014 BKN029 11/09 Q1015

EXPIRED METARs :
  • 101150Z 19019KT 9999 FEW013 BKN031 11/08 Q1016
  • 101120Z 19021KT 9999 FEW010 BKN029 11/08 Q1017
  • 101050Z 19021KT 9999 FEW010 SCT014 BKN033 10/08 Q1018
  • 101020Z 19020KT 9999 VCSH FEW010 SCT013 BKN034 10/08 Q1019
  • 100950Z 19020KT 9999 -RA FEW010 BKN017 BKN042 10/08 Q1019

TAF TAF EGJB
Valid from the 10 at 12:00 until the 10 at 21:00 UTC


101103Z 1012/1021 18022G33KT 9999 FEW009 BKN033
TEMPO 1012/1021 6000 RA BKN009
PROB40
TEMPO 1012/1020 3000 DZ BKN004
PROB30
TEMPO 1018/1020 1200 BR BKN002
BECMG 1019/1021 31016G26KT
ATIS : +44 1481 238 957



MET'MAP, your aeronautical weather chart ! - Copyright ORBIFLY December 2007 - Disclaimer

ORBIFLY MET'MAP TEAM :

Programming & Development : Alexandra Zaïnal
Concept & original design : Baudouin d'Aumeries
Assistance for programming : Marc-Olivier Méhu
Technical & hardware support : Manuel Goepfert

Contact : metmap@orbifly.com




SOURCES & CREDITS :

   NOAA